createdAt,value
2022-10-05T00:01:45.257Z,100993.06
2022-10-05T00:04:28.053Z,100986.06
2022-10-05T00:07:04.289Z,100989.47
2022-10-05T00:09:32.282Z,100983.25
2022-10-05T00:11:59.071Z,100981.97
2022-10-05T00:14:32.801Z,100982.38
2022-10-05T00:17:01.417Z,100978.09
2022-10-05T00:19:36.703Z,100980.72
2022-10-05T00:22:09.611Z,100968.28
2022-10-05T00:24:36.565Z,100959.09
2022-10-05T00:27:24.308Z,100960.56
2022-10-05T00:29:53.749Z,100954.81
2022-10-05T00:32:20.376Z,100967.66
2022-10-05T00:34:47.428Z,100969.16
2022-10-05T00:37:14.415Z,100971.72
2022-10-05T00:39:42.122Z,100975.97
2022-10-05T00:42:46.725Z,100982.84
2022-10-05T00:45:18.794Z,100979.38
2022-10-05T00:48:02.813Z,100978.34
2022-10-05T00:50:47.079Z,100971.94
2022-10-05T00:53:28.229Z,100965.75
2022-10-05T00:56:01.943Z,100958.94
2022-10-05T00:58:53.171Z,100962.44
2022-10-05T01:02:04.867Z,100964.97
2022-10-05T01:04:34.615Z,100955.16
2022-10-05T01:07:30.848Z,100959.66
2022-10-05T01:09:57.369Z,100951.34
2022-10-05T01:12:45.158Z,100944.88
2022-10-05T01:15:35.011Z,100937.72
2022-10-05T01:18:26.776Z,100930.41
2022-10-05T01:21:11.588Z,100946.34
2022-10-05T01:24:22.779Z,100945.25
2022-10-05T01:27:07.845Z,100935.88
2022-10-05T01:29:39.277Z,100925.22
2022-10-05T01:32:27.995Z,100928.59
2022-10-05T01:34:59.510Z,100926.91
2022-10-05T01:37:42.369Z,100940.78
2022-10-05T01:40:09.025Z,100935.47
2022-10-05T01:42:44.130Z,100933.19
2022-10-05T01:45:33.841Z,100924.13
2022-10-05T01:48:08.757Z,100916.47
2022-10-05T01:50:51.156Z,100905.50
2022-10-05T01:53:45.621Z,100907.59
2022-10-05T01:56:24.639Z,100907.66
2022-10-05T01:59:28.900Z,100904.66
2022-10-05T02:02:01.974Z,100900.25
2022-10-05T02:05:02.049Z,100904.28
2022-10-05T02:07:38.568Z,100892.72
2022-10-05T02:10:28.408Z,100910.06
2022-10-05T02:13:03.310Z,100917.59
2022-10-05T02:15:45.855Z,100911.19
2022-10-05T02:18:23.179Z,100896.19
2022-10-05T02:20:52.980Z,100903.03
2022-10-05T02:23:25.704Z,100899.81
2022-10-05T02:25:55.402Z,100902.63
2022-10-05T02:28:36.427Z,100900.91
2022-10-05T02:31:44.756Z,100895.75
2022-10-05T02:34:31.889Z,100897.47
2022-10-05T02:37:29.640Z,100897.03
2022-10-05T02:40:13.801Z,100888.91
2022-10-05T02:42:48.640Z,100883.38
2022-10-05T02:46:03.041Z,100862.47
2022-10-05T02:49:08.537Z,100882.53
2022-10-05T02:52:04.659Z,100883.81
2022-10-05T02:54:58.589Z,100881.31
2022-10-05T02:57:42.558Z,100875.53
2022-10-05T03:00:16.352Z,100880.63
2022-10-05T03:02:48.727Z,100867.97
2022-10-05T03:05:25.401Z,100868.59
2022-10-05T03:08:14.461Z,100862.22
2022-10-05T03:10:50.580Z,100860.28
2022-10-05T03:13:30.112Z,100859.09
2022-10-05T03:16:27.842Z,100850.03
2022-10-05T03:19:22.528Z,100853.47
2022-10-05T03:21:55.312Z,100846.94
2022-10-05T03:24:50.579Z,100843.59
2022-10-05T03:27:49.995Z,100841.28
2022-10-05T03:30:21.664Z,100840.38
2022-10-05T03:33:22.589Z,100834.47
2022-10-05T03:35:52.474Z,100832.69
2022-10-05T03:38:47.620Z,100833.06
2022-10-05T03:41:30.077Z,100825.19
2022-10-05T03:44:18.619Z,100822.22
2022-10-05T03:46:51.563Z,100832.69
2022-10-05T03:49:39.139Z,100821.41
2022-10-05T03:52:17.217Z,100830.34
2022-10-05T03:54:54.488Z,100816.88
2022-10-05T03:57:25.739Z,100814.78
2022-10-05T04:00:00.322Z,100808.34
2022-10-05T04:02:34.860Z,100813.78
2022-10-05T04:05:10.681Z,100804.88
2022-10-05T04:08:25.113Z,100816.81
2022-10-05T04:10:55.889Z,100820.03
2022-10-05T04:13:42.091Z,100812.72
2022-10-05T04:16:28.137Z,100810.69
2022-10-05T04:19:11.182Z,100803.84
2022-10-05T04:21:46.066Z,100811.13
2022-10-05T04:24:15.717Z,100809.81
2022-10-05T04:26:49.149Z,100805.22
2022-10-05T04:29:36.307Z,100810.19
2022-10-05T04:32:40.506Z,100805.78
2022-10-05T04:35:23.535Z,100805.81
2022-10-05T04:38:16.477Z,100813.06
2022-10-05T04:41:08.409Z,100805.56
2022-10-05T04:44:12.565Z,100804.03
2022-10-05T04:46:49.623Z,100803.25
2022-10-05T04:49:26.018Z,100804.44
2022-10-05T04:52:08.035Z,100805.66
2022-10-05T04:55:02.384Z,100812.09
2022-10-05T04:57:50.781Z,100816.38
2022-10-05T05:00:22.851Z,100816.47
2022-10-05T05:03:18.562Z,100815.41
2022-10-05T05:06:18.779Z,100812.09
2022-10-05T05:09:04.852Z,100820.13
2022-10-05T05:11:48.677Z,100826.56
2022-10-05T05:14:33.399Z,100824.13
2022-10-05T05:17:20.191Z,100814.44
2022-10-05T05:20:13.606Z,100811.75
2022-10-05T05:23:22.190Z,100810.41
2022-10-05T05:26:05.754Z,100816.13
2022-10-05T05:28:35.083Z,100811.69
2022-10-05T05:31:31.025Z,100811.38
2022-10-05T05:34:19.180Z,100808.25
2022-10-05T05:37:24.578Z,100807.19
2022-10-05T05:40:16.556Z,100802.81
2022-10-05T05:43:06.620Z,100812.19
2022-10-05T05:45:42.480Z,100804.94
2022-10-05T05:48:26.655Z,100814.00
2022-10-05T05:51:09.158Z,100810.13
2022-10-05T05:54:15.253Z,100802.81
2022-10-05T05:57:12.984Z,100804.94
2022-10-05T06:00:06.656Z,100802.34
2022-10-05T06:03:04.361Z,100805.72
2022-10-05T06:05:46.628Z,100806.56
2022-10-05T06:08:24.005Z,100814.84
2022-10-05T06:11:05.584Z,100800.47
2022-10-05T06:13:39.668Z,100806.06
2022-10-05T06:16:22.134Z,100814.88
2022-10-05T06:18:58.479Z,100805.81
2022-10-05T06:21:38.465Z,100810.47
2022-10-05T06:24:34.039Z,100815.63
2022-10-05T06:27:12.947Z,100809.59
2022-10-05T06:30:13.516Z,100815.28
2022-10-05T06:32:50.537Z,100812.53
2022-10-05T06:35:35.134Z,100814.19
2022-10-05T06:38:20.897Z,100815.41
2022-10-05T06:40:59.171Z,100816.56
2022-10-05T06:43:43.094Z,100815.47
2022-10-05T06:46:57.908Z,100829.97
2022-10-05T06:50:14.220Z,100825.28
2022-10-05T06:53:28.139Z,100817.13
2022-10-05T06:56:13.917Z,100817.22
2022-10-05T06:58:50.932Z,100818.66
2022-10-05T07:01:42.714Z,100814.13
2022-10-05T07:04:37.612Z,100819.91
2022-10-05T07:07:35.330Z,100815.00
2022-10-05T07:10:18.128Z,100812.84
2022-10-05T07:13:06.665Z,100813.09
2022-10-05T07:15:56.553Z,100811.88
2022-10-05T07:18:56.866Z,100819.41
2022-10-05T07:21:39.189Z,100828.22
2022-10-05T07:24:22.560Z,100826.50
2022-10-05T07:27:14.276Z,100830.16
2022-10-05T07:30:03.387Z,100829.34
2022-10-05T07:33:01.926Z,100831.69
2022-10-05T07:36:11.591Z,100832.72
2022-10-05T07:39:06.109Z,100838.00
2022-10-05T07:41:43.977Z,100830.16
2022-10-05T07:44:22.529Z,100830.44
2022-10-05T07:47:01.618Z,100838.47
2022-10-05T07:49:36.707Z,100834.66
2022-10-05T07:52:16.127Z,100831.66
2022-10-05T07:54:58.921Z,100828.84
2022-10-05T07:57:48.977Z,100830.28
2022-10-05T08:00:20.864Z,100836.31
2022-10-05T08:03:11.183Z,100843.75
2022-10-05T08:05:42.287Z,100834.53
2022-10-05T08:08:14.262Z,100839.19
2022-10-05T08:10:59.398Z,100837.53
2022-10-05T08:13:39.193Z,100835.22
2022-10-05T08:16:13.365Z,100840.69
2022-10-05T08:18:53.950Z,100836.22
2022-10-05T08:21:24.621Z,100834.31
2022-10-05T08:24:11.967Z,100832.28
2022-10-05T08:26:49.949Z,100835.22
2022-10-05T08:29:40.685Z,100824.88
2022-10-05T08:32:21.068Z,100835.66
2022-10-05T08:35:13.939Z,100820.81
2022-10-05T08:37:43.811Z,100817.50
2022-10-05T08:40:21.274Z,100836.44
2022-10-05T08:42:59.816Z,100829.00
2022-10-05T08:45:45.414Z,100825.91
2022-10-05T08:48:21.206Z,100831.00
2022-10-05T08:51:12.722Z,100827.38
2022-10-05T08:54:16.968Z,100824.75
2022-10-05T08:56:55.440Z,100825.69
2022-10-05T08:59:46.164Z,100818.44
2022-10-05T09:02:50.465Z,100813.19
2022-10-05T09:05:50.844Z,100819.84
2022-10-05T09:08:30.905Z,100802.00
2022-10-05T09:11:17.009Z,100810.94
2022-10-05T09:13:59.961Z,100804.78
2022-10-05T09:16:43.974Z,100812.91
2022-10-05T09:19:22.742Z,100800.69
2022-10-05T09:21:52.160Z,100807.53
2022-10-05T09:24:28.108Z,100806.91
2022-10-05T09:27:00.863Z,100798.84
2022-10-05T09:30:05.147Z,100800.50
2022-10-05T09:32:57.828Z,100802.25
2022-10-05T09:35:42.757Z,100804.44
2022-10-05T09:38:18.980Z,100796.97
2022-10-05T09:40:51.504Z,100800.69
2022-10-05T09:43:40.150Z,100800.13
2022-10-05T09:46:36.776Z,100793.56
2022-10-05T09:49:32.603Z,100790.44
2022-10-05T09:52:20.732Z,100787.00
2022-10-05T09:55:25.526Z,100783.84
2022-10-05T09:58:29.376Z,100788.47
2022-10-05T10:01:08.949Z,100778.91
2022-10-05T10:04:07.854Z,100776.56
2022-10-05T10:06:56.193Z,100776.28
2022-10-05T10:10:02.165Z,100768.91
2022-10-05T10:12:50.469Z,100770.84
2022-10-05T10:15:52.331Z,100773.34
2022-10-05T10:18:42.718Z,100782.31
2022-10-05T10:21:46.117Z,100765.72
2022-10-05T10:24:26.391Z,100774.19
2022-10-05T10:27:21.226Z,100761.38
2022-10-05T10:30:09.215Z,100764.53
2022-10-05T10:33:19.377Z,100759.38
2022-10-05T10:35:50.991Z,100767.72
2022-10-05T10:38:33.253Z,100765.53
2022-10-05T10:41:05.468Z,100772.69
2022-10-05T10:43:44.895Z,100765.69
2022-10-05T10:46:27.045Z,100770.88
2022-10-05T10:49:15.624Z,100770.78
2022-10-05T10:51:42.204Z,100758.75
2022-10-05T10:54:20.973Z,100760.59
2022-10-05T10:56:54.976Z,100761.31
2022-10-05T10:59:43.431Z,100761.31
2022-10-05T11:03:04.705Z,100760.13
2022-10-05T11:05:51.592Z,100748.88
2022-10-05T11:08:37.004Z,100733.59
2022-10-05T11:11:36.215Z,100740.41
2022-10-05T11:14:39.637Z,100738.13
2022-10-05T11:17:19.865Z,100735.47
2022-10-05T11:20:09.203Z,100734.25
2022-10-05T11:22:57.670Z,100718.88
2022-10-05T11:25:27.670Z,100715.47
2022-10-05T11:28:14.074Z,100711.34
2022-10-05T11:30:50.317Z,100710.00
2022-10-05T11:33:30.112Z,100703.13
2022-10-05T11:36:25.844Z,100704.94
2022-10-05T11:39:28.714Z,100693.06
2022-10-05T11:42:34.549Z,100680.69
2022-10-05T11:45:23.045Z,100680.28
2022-10-05T11:48:08.384Z,100682.50
2022-10-05T11:50:38.444Z,100672.59
2022-10-05T11:53:26.704Z,100654.09
2022-10-05T11:56:04.522Z,100655.81
2022-10-05T11:58:43.438Z,100645.22
2022-10-05T12:01:23.212Z,100649.06
2022-10-05T12:04:35.702Z,100643.69
2022-10-05T12:07:29.468Z,100638.34
2022-10-05T12:10:22.584Z,100623.75
2022-10-05T12:12:59.039Z,100625.53
2022-10-05T12:15:31.872Z,100624.38
2022-10-05T12:18:22.657Z,100614.41
2022-10-05T12:20:58.549Z,100619.03
2022-10-05T12:23:30.520Z,100611.00
2022-10-05T12:26:05.195Z,100608.03
2022-10-05T12:29:07.662Z,100596.88
2022-10-05T12:31:56.193Z,100597.97
2022-10-05T12:34:44.723Z,100606.34
2022-10-05T12:37:39.427Z,100593.75
2022-10-05T12:40:17.402Z,100584.94
2022-10-05T12:42:54.711Z,100583.09
2022-10-05T12:45:30.178Z,100569.53
2022-10-05T12:48:32.857Z,100565.97
2022-10-05T12:51:11.795Z,100564.97
2022-10-05T12:53:57.637Z,100564.53
2022-10-05T12:56:40.000Z,100561.88
2022-10-05T12:59:15.636Z,100563.28
2022-10-05T13:02:23.615Z,100566.44
2022-10-05T13:05:02.470Z,100558.84
2022-10-05T13:08:06.439Z,100560.84
2022-10-05T13:11:01.759Z,100561.22
2022-10-05T13:13:50.453Z,100561.06
2022-10-05T13:16:29.302Z,100549.78
2022-10-05T13:19:16.791Z,100547.34
2022-10-05T13:21:46.140Z,100538.88
2022-10-05T13:24:31.002Z,100536.63
2022-10-05T13:27:19.659Z,100527.97
2022-10-05T13:30:17.822Z,100523.34
2022-10-05T13:32:53.448Z,100520.31
2022-10-05T13:35:43.622Z,100519.22
2022-10-05T13:38:36.211Z,100515.34
2022-10-05T13:41:24.420Z,100519.94
2022-10-05T13:44:00.233Z,100509.25
2022-10-05T13:46:37.546Z,100501.00
2022-10-05T13:49:37.431Z,100507.63
2022-10-05T13:52:28.917Z,100499.94
2022-10-05T13:55:10.917Z,100506.38
2022-10-05T13:58:05.819Z,100504.00
2022-10-05T14:00:43.461Z,100507.13
2022-10-05T14:03:33.158Z,100497.94
2022-10-05T14:06:01.895Z,100488.03
2022-10-05T14:08:50.859Z,100495.28
2022-10-05T14:11:36.841Z,100497.81
2022-10-05T14:14:10.064Z,100494.00
2022-10-05T14:16:50.980Z,100498.84
2022-10-05T14:19:23.923Z,100488.72
2022-10-05T14:22:22.186Z,100493.84
2022-10-05T14:25:09.683Z,100496.41
2022-10-05T14:27:48.655Z,100481.41
2022-10-05T14:30:15.286Z,100482.25
2022-10-05T14:32:51.052Z,100482.31
2022-10-05T14:35:22.000Z,100487.41
2022-10-05T14:37:56.871Z,100481.06
2022-10-05T14:40:23.560Z,100479.63
2022-10-05T14:42:50.214Z,100461.47
2022-10-05T14:45:21.612Z,100463.16
2022-10-05T14:47:56.120Z,100469.06
2022-10-05T14:50:29.687Z,100456.47
2022-10-05T14:53:11.968Z,100470.47
2022-10-05T14:55:47.584Z,100470.19
2022-10-05T14:58:36.002Z,100478.84
2022-10-05T15:01:13.577Z,100480.84
2022-10-05T15:03:55.677Z,100483.09
2022-10-05T15:06:36.415Z,100485.97
2022-10-05T15:09:46.223Z,100484.59
2022-10-05T15:12:22.258Z,100485.72
2022-10-05T15:14:52.995Z,100479.47
2022-10-05T15:17:34.581Z,100492.63
2022-10-05T15:22:27.853Z,100493.69
2022-10-05T15:25:09.462Z,100497.59
2022-10-05T15:28:03.980Z,100493.13
2022-10-05T15:30:35.320Z,100485.81
2022-10-05T15:33:08.877Z,100486.66
2022-10-05T15:35:48.672Z,100486.06
2022-10-05T15:38:36.698Z,100500.38
2022-10-05T15:41:09.453Z,100497.81
2022-10-05T15:43:50.264Z,100512.31
2022-10-05T15:46:41.218Z,100513.78
2022-10-05T15:49:49.599Z,100517.91
2022-10-05T15:52:27.191Z,100520.94
2022-10-05T15:55:32.159Z,100527.31
2022-10-05T15:58:36.381Z,100533.72
2022-10-05T16:01:33.571Z,100539.53
2022-10-05T16:04:22.102Z,100534.16
2022-10-05T16:07:13.739Z,100546.41
2022-10-05T16:09:43.427Z,100544.59
2022-10-05T16:12:18.982Z,100539.13
2022-10-05T16:14:50.615Z,100548.06
2022-10-05T16:17:55.632Z,100553.06
2022-10-05T16:20:59.933Z,100556.38
2022-10-05T16:23:34.049Z,100556.44
2022-10-05T16:26:11.501Z,100563.91
2022-10-05T16:29:19.701Z,100570.59
2022-10-05T16:32:17.267Z,100573.09
2022-10-05T16:34:54.130Z,100584.88
2022-10-05T16:37:47.446Z,100586.44
2022-10-05T16:40:41.338Z,100595.84
2022-10-05T16:43:18.423Z,100606.34
2022-10-05T16:46:01.754Z,100606.03
2022-10-05T16:48:49.808Z,100612.72
2022-10-05T16:51:19.287Z,100612.31
2022-10-05T16:54:18.727Z,100617.56
2022-10-05T16:56:52.402Z,100623.91
2022-10-05T16:59:34.988Z,100624.28
2022-10-05T17:02:18.727Z,100637.22
2022-10-05T17:04:56.656Z,100643.06
2022-10-05T17:07:23.311Z,100658.06
2022-10-05T17:10:14.410Z,100653.19
2022-10-05T17:13:00.706Z,100656.75
2022-10-05T17:15:36.572Z,100672.16
2022-10-05T17:18:30.201Z,100682.09
2022-10-05T17:21:15.202Z,100682.56
2022-10-05T17:23:58.048Z,100691.69
2022-10-05T17:26:41.248Z,100708.50
2022-10-05T17:29:24.752Z,100705.88
2022-10-05T17:32:06.669Z,100709.25
2022-10-05T17:34:34.931Z,100720.50
2022-10-05T17:37:37.197Z,100720.94
2022-10-05T17:40:34.485Z,100736.16
2022-10-05T17:43:23.885Z,100742.91
2022-10-05T17:45:54.028Z,100736.06
2022-10-05T17:48:37.405Z,100749.00
2022-10-05T17:51:35.422Z,100751.03
2022-10-05T17:54:41.229Z,100766.72
2022-10-05T17:57:07.840Z,100761.06
2022-10-05T17:59:37.542Z,100773.00
2022-10-05T18:02:15.843Z,100768.69
2022-10-05T18:04:50.903Z,100772.06
2022-10-05T18:07:21.202Z,100765.88
2022-10-05T18:10:09.587Z,100776.63
2022-10-05T18:12:36.105Z,100764.91
2022-10-05T18:15:21.131Z,100760.38
2022-10-05T18:17:52.884Z,100767.75
2022-10-05T18:20:31.441Z,100768.03
2022-10-05T18:23:01.014Z,100768.06
2022-10-05T18:25:52.557Z,100761.00
2022-10-05T18:28:34.791Z,100769.25
2022-10-05T18:31:29.034Z,100775.56
2022-10-05T18:34:26.119Z,100780.78
2022-10-05T18:37:31.445Z,100778.25
2022-10-05T18:40:34.579Z,100780.34
2022-10-05T18:43:23.733Z,100781.81
2022-10-05T18:46:14.169Z,100762.19
2022-10-05T18:48:57.996Z,100786.28
2022-10-05T18:51:28.917Z,100785.63
2022-10-05T18:54:04.579Z,100791.69
2022-10-05T18:56:50.316Z,100779.19
2022-10-05T18:59:43.877Z,100784.84
2022-10-05T19:02:34.620Z,100771.84
2022-10-05T19:05:47.565Z,100773.00
2022-10-05T19:08:24.617Z,100778.25
2022-10-05T19:10:57.159Z,100784.50
2022-10-05T19:13:43.514Z,100786.72
2022-10-05T19:16:35.887Z,100791.09
2022-10-05T19:19:32.443Z,100791.97
2022-10-05T19:22:16.675Z,100799.56
2022-10-05T19:24:59.605Z,100805.16
2022-10-05T19:27:33.864Z,100801.25
2022-10-05T19:30:03.585Z,100800.41
2022-10-05T19:33:20.293Z,100817.00
2022-10-05T19:36:05.872Z,100810.66
2022-10-05T19:38:32.843Z,100806.75
2022-10-05T19:41:22.410Z,100812.91
2022-10-05T19:44:30.453Z,100805.28
2022-10-05T19:47:30.495Z,100808.88
2022-10-05T19:49:59.570Z,100806.31
2022-10-05T19:52:40.097Z,100814.34
2022-10-05T19:55:26.235Z,100811.84
2022-10-05T19:58:00.402Z,100806.81
2022-10-05T20:00:31.115Z,100810.31
2022-10-05T20:03:12.549Z,100806.66
2022-10-05T20:05:39.976Z,100807.84
2022-10-05T20:08:07.705Z,100811.13
2022-10-05T20:10:34.595Z,100805.41
2022-10-05T20:13:04.069Z,100816.22
2022-10-05T20:15:52.117Z,100809.22
2022-10-05T20:19:09.868Z,100818.41
2022-10-05T20:21:45.380Z,100834.03
2022-10-05T20:24:11.832Z,100822.28
2022-10-05T20:27:04.808Z,100828.34
2022-10-05T20:29:42.770Z,100833.81
2022-10-05T20:32:12.185Z,100826.66
2022-10-05T20:34:44.363Z,100832.47
2022-10-05T20:37:20.051Z,100830.41
2022-10-05T20:39:47.915Z,100841.22
2022-10-05T20:42:14.457Z,100844.41
2022-10-05T20:44:41.032Z,100848.88
2022-10-05T20:47:09.757Z,100854.22
2022-10-05T20:49:38.456Z,100861.56
2022-10-05T20:52:06.726Z,100855.91
2022-10-05T20:54:33.402Z,100857.88
2022-10-05T20:57:00.404Z,100861.38
2022-10-05T20:59:27.048Z,100865.84
2022-10-05T21:01:53.816Z,100863.19
2022-10-05T21:04:30.136Z,100874.63
2022-10-05T21:07:02.583Z,100874.13
2022-10-05T21:09:29.758Z,100866.13
2022-10-05T21:11:56.320Z,100871.72
2022-10-05T21:14:23.946Z,100869.59
2022-10-05T21:16:51.221Z,100882.03
2022-10-05T21:19:17.810Z,100878.41
2022-10-05T21:21:45.933Z,100879.72
2022-10-05T21:24:14.801Z,100879.72
2022-10-05T21:26:42.051Z,100878.19
2022-10-05T21:29:12.528Z,100882.88
2022-10-05T21:31:40.360Z,100893.47
2022-10-05T21:34:07.293Z,100887.19
2022-10-05T21:36:34.519Z,100888.84
2022-10-05T21:39:01.575Z,100888.84
2022-10-05T21:41:28.156Z,100900.50
2022-10-05T21:43:54.699Z,100910.84
2022-10-05T21:46:25.201Z,100916.06
2022-10-05T21:48:52.785Z,100926.16
2022-10-05T21:51:20.069Z,100928.47
2022-10-05T21:53:53.296Z,100943.25
2022-10-05T21:56:25.329Z,100933.78
2022-10-05T21:58:52.208Z,100942.78
2022-10-05T22:01:22.460Z,100953.06
2022-10-05T22:03:49.605Z,100940.00
2022-10-05T22:06:16.211Z,100950.31
2022-10-05T22:08:43.214Z,100952.78
2022-10-05T22:11:15.357Z,100961.25
2022-10-05T22:13:45.529Z,100952.53
2022-10-05T22:16:13.758Z,100964.28
2022-10-05T22:18:41.345Z,100986.22
2022-10-05T22:21:11.878Z,100967.69
2022-10-05T22:23:42.766Z,100984.75
2022-10-05T22:26:11.980Z,100982.56
2022-10-05T22:28:39.867Z,100991.47
2022-10-05T22:31:07.968Z,100999.09
2022-10-05T22:33:34.617Z,100998.44
2022-10-05T22:36:01.320Z,100998.06
2022-10-05T22:38:30.275Z,101008.75
2022-10-05T22:40:57.307Z,101017.31
2022-10-05T22:43:24.883Z,101028.94
2022-10-05T22:45:51.390Z,101029.88
2022-10-05T22:48:18.505Z,101043.81
2022-10-05T22:50:46.257Z,101052.25
2022-10-05T22:53:13.417Z,101065.66
2022-10-05T22:55:40.539Z,101067.75
2022-10-05T22:58:07.885Z,101071.09
2022-10-05T23:00:56.411Z,101074.53
2022-10-05T23:03:20.996Z,101113.84
2022-10-05T23:05:47.557Z,101126.41
2022-10-05T23:08:14.100Z,101150.81
2022-10-05T23:10:40.605Z,101162.91
2022-10-05T23:13:07.291Z,101157.34
2022-10-05T23:15:34.412Z,101155.31
2022-10-05T23:18:01.416Z,101174.78
2022-10-05T23:20:27.965Z,101197.28
2022-10-05T23:22:54.536Z,101203.78
2022-10-05T23:25:22.111Z,101222.94
2022-10-05T23:27:48.788Z,101225.28
2022-10-05T23:30:15.405Z,101231.28
2022-10-05T23:32:43.604Z,101221.44
2022-10-05T23:35:12.223Z,101232.09
2022-10-05T23:37:40.540Z,101237.38
2022-10-05T23:40:09.128Z,101231.13
2022-10-05T23:42:35.738Z,101220.47
2022-10-05T23:45:02.500Z,101233.72
2022-10-05T23:47:29.339Z,101247.84
2022-10-05T23:49:55.837Z,101241.69
2022-10-05T23:52:22.500Z,101234.19
2022-10-05T23:54:49.022Z,101247.28
2022-10-05T23:57:19.556Z,101252.41
2022-10-05T23:59:46.473Z,101256.88
